This is the latest recevied weather packets stored in our database for station/object OE6ATD-13. If no packets are shown the sender has not sent any weather packets the latest 1 day(s).
| Time | Temp. | Humidity | Pressure | Rain* | Wind** | Luminosity | Snow |
|---|---|---|---|---|---|---|---|
| 1777988128 | 21.67° C | 41% | 1010.3 hPa | 0 mm | 0.45 m/s, 313° | 241 W/m² | - |
| 1777987524 | 21.67° C | 41% | 1010.4 hPa | 0 mm | 1.34 m/s, 157° | 229 W/m² | - |
| 1777986919 | 22.22° C | 41% | 1010.5 hPa | 0 mm | 1.34 m/s, 297° | 241 W/m² | - |
| 1777986316 | 22.22° C | 39% | 1010.4 hPa | 0 mm | 1.34 m/s, 288° | 335 W/m² | - |
| 1777985727 | 22.22° C | 40% | 1010.4 hPa | 0 mm | 1.34 m/s, 236° | 499 W/m² | - |
| 1777985122 | 21.67° C | 41% | 1010.4 hPa | 0 mm | 0.89 m/s, 302° | 242 W/m² | - |
| 1777984524 | 21.67° C | 41% | 1010.5 hPa | 0 mm | 1.34 m/s, 251° | 267 W/m² | - |
| 1777983925 | 21.67° C | 41% | 1010.5 hPa | 0 mm | 0.89 m/s, 267° | 360 W/m² | - |
| 1777983321 | 22.22° C | 39% | 1010.4 hPa | 0 mm | 2.24 m/s, 281° | 274 W/m² | - |
| 1777982717 | 23.89° C | 35% | 1010.3 hPa | 0 mm | 3.13 m/s, 225° | 463 W/m² | - |
| 1777982128 | 23.89° C | 35% | 1010.3 hPa | 0 mm | 2.68 m/s, 298° | 924 W/m² | - |
| 1777981524 | 23.89° C | 33% | 1010.2 hPa | 0 mm | 3.13 m/s, 261° | 588 W/m² | - |
| 1777980920 | 23.89° C | 33% | 1010 hPa | 0 mm | 2.24 m/s, 247° | 530 W/m² | - |
| 1777980315 | 23.89° C | 31% | 1010 hPa | 0 mm | 1.79 m/s, 266° | 479 W/m² | - |
| 1777979726 | 24.44° C | 30% | 1009.8 hPa | 0 mm | 1.79 m/s, 254° | 354 W/m² | - |
| 1777979122 | 25.56° C | 28% | 1009.7 hPa | 0 mm | 1.79 m/s, 256° | 638 W/m² | - |
| 1777978518 | 26.11° C | 26% | 1009.7 hPa | 0 mm | 1.79 m/s, 265° | 561 W/m² | - |
| 1777977929 | 26.11° C | 26% | 1009.7 hPa | 0 mm | 1.34 m/s, 260° | 659 W/m² | - |
| 1777977325 | 26.11° C | 29% | 1009.6 hPa | 0 mm | 1.79 m/s, 250° | 862 W/m² | - |
| 1777976721 | 25.56° C | 30% | 1009.7 hPa | 0 mm | 1.34 m/s, 323° | 1059 W/m² | - |
| 1777976117 | 25° C | 31% | 1009.8 hPa | 0 mm | 0.89 m/s, 276° | 986 W/m² | - |
| 1777975527 | 25° C | 30% | 1009.8 hPa | 0 mm | 1.79 m/s, 7° | 592 W/m² | - |
| 1777974923 | 25.56° C | 30% | 1009.7 hPa | 0 mm | 0.89 m/s, 321° | 883 W/m² | - |
| 1777974319 | 25° C | 30% | 1009.9 hPa | 0 mm | 1.79 m/s, 303° | 842 W/m² | - |
| 1777973729 | 26.11° C | 26% | 1009.8 hPa | 0 mm | 0.89 m/s, 334° | 739 W/m² | - |
* Rain latest hour (hover to see other rain measurements)
** Current wind speed in m/s (hover to see current wind gust speed)